Impacts METAR Board
IDs:

KCLL - College Station/East, TX, US

Updated at: 0000 UTC 19 Oct 2019
Potential Impact None Slight Moderate High
Time 18/12Z 18/13Z 18/14Z 18/15Z 18/16Z 18/17Z 18/18Z 18/19Z 18/20Z 18/21Z 18/22Z 18/23Z 19/00Z
Temp52 52 58 63 66 72 74 79 80 82 82 81 76
Dewpt49 49 53 53 53 50 45 46 41 43 46 44 47
Altim29.91 29.90 29.90 29.90 29.89 29.87 29.85 29.80 29.77 29.75 29.74 29.73 29.73
VIS10 10 10 10 10 10 10 10 10 10 10 10 10
CIG-- -- -- -- -- -- -- -- -- -- -- -- --
CoverCLRCLRCLRCLRCLRCLRCLRCLRCLRCLRCLRCLRCLR
FltCatVFRVFRVFRVFRVFRVFRVFRVFRVFRVFRVFRVFRVFR
WX--------------------------
WDir340070002003601301200140110
WSpd5 0 3 5 0 4 0 4 3 8 3 7 4
WGst-- -- -- -- -- -- -- -- -- -- -- -- --
Raw hourly METARs
KCLL 181153Z AUTO 34005KT 10SM CLR 11/09 A2991 RMK AO2 SLP127 T01110094 10139 20106 53007
KCLL 181253Z 00000KT 10SM CLR 11/09 A2990 RMK AO2 SLP123 T01110094
KCLL 181353Z 07003KT 10SM CLR 14/12 A2990 RMK AO2 SLP121 T01440117
KCLL 181453Z VRB05KT 10SM CLR 17/12 A2990 RMK AO2 SLP121 T01720117 55006
KCLL 181553Z 00000KT 10SM CLR 19/12 A2989 RMK AO2 SLP119 T01890117
KCLL 181653Z 02004KT 10SM CLR 22/10 A2987 RMK AO2 SLP112 T02220100
KCLL 181753Z 00000KT 10SM CLR 23/07 A2985 RMK AO2 SLP105 T02330072 10239 20106 58015
KCLL 181853Z 36004KT 10SM CLR 26/08 A2980 RMK AO2 SLP089 T02610078
KCLL 181953Z 13003KT 10SM CLR 27/05 A2977 RMK AO2 SLP078 T02670050
KCLL 182053Z 12008KT 10SM CLR 28/06 A2975 RMK AO2 SLP070 T02780061 56035
KCLL 182153Z VRB03KT 10SM CLR 28/08 A2974 RMK AO2 SLP067 T02780078
KCLL 182253Z 14007KT 10SM CLR 27/07 A2973 RMK AO2 SLP065 T02720067
KCLL 182353Z 11004KT 10SM CLR 24/08 A2973 RMK AO2 SLP065 T02440083 10283 20233 56006